Portada
METAR-TAF:

METAR-TAF

Aeroports :

Aeroport de la Corunya

La Corunya, Espanya

latitud: 43-18N, longitud: 008-23W, altitud: 97 m

Observació

L'informe es va fer fa 32 minuts, a les 21:00 UTC
Vent 2 kt amb direcció variable
Temperatura 23°C
Humitat 69%
Pressió 1015 hPa
Visibilitat: 3000 m
fum

METAR: LECO 232100Z VRB02KT 7000 3000E FU NSC 23/17 Q1015 NOSIG

Hora: 23:32 (21:32 UTC)

Pronòstic

L'informe es va fer fa 1 hora i 32 minuts, a les 20:00 UTC
Pronòstic vàlid del 23 a les 21 UTC al 24 a les 21 UTC
Vent 4 kt amb direcció variable
Visibilitat 10 km o més
sense núvols per sota de 1500 mi sense presència de cumulonimbus.
Probabilitat 40% :
Temporalment
l' 24 a les 09 UTC al 24 a les 18 UTC
Vent 10 kt del Nord

TAF: LECO 232000Z 2321/2421 VRB04KT CAVOK TX29/2414Z TN17/2405Z PROB40 TEMPO 2409/2418 36010KT

Observacions i pronòstics meteorològics de més de 4000 aeroports (METAR i TAF).

Les estacions disponibles són els punts grocs i vermells al mapa.

Posi el ratolí al punt desitjat per veure el nom de l'estació.

Feu clic per veure les observacions i els pronòstics meteorològics.

Per canviar el mapa: feu clic els botons verds amb una creu de color negre per apropar; al botó verd amb un guió per allunyar la imatge; o en les fletxes verdes per a mapes adjacents.


METAR-TAF: